Latest Weather Observations for Mount Nowa Nowa

IDV60801

Issued at 8:02 pm EST Saturday 27 August 2016 (issued every 30 minutes, with the page automatically refreshed every 10 minutes)

About weather observations | Map of weather stations | Latest weather observations for VIC | Other Formats
Station Details ID: 084144 Name: MOUNT NOWA NOWA Lat: -37.69 Lon: 148.09 Height: 350.0 m
Data from the previous 72 hours. | See also: Recent months at Mount Nowa Nowa
Date/Time
EST
Temp
°C
App
Temp
°C
Dew
Point
°C
Rel
Hum
%
Delta-T
°C
Wind Press
QNH
hPa
Press
MSL
hPa
Rain since
9am
mm
Dir  Spd
km/h
Gust
km/h
Spd
kts
Gust
kts
27/08:00pm 9.1 4.8 1.0 57 3.4 NW 13 19 7 10 - - 0.0
27/07:30pm 9.5 4.5 1.4 57 3.4 NW 17 24 9 13 - - 0.0
27/07:00pm 10.0 5.8 1.9 57 3.5 NW 13 26 7 14 - - 0.0
27/06:30pm 10.3 7.6 2.7 59 3.3 N 6 7 3 4 - - 0.0
27/06:00pm 9.5 6.8 2.6 62 3.0 E 6 7 3 4 - - 0.0
27/05:30pm 9.8 7.2 3.1 63 2.9 E 6 7 3 4 - - 0.0
27/05:00pm 10.7 8.6 3.7 62 3.1 ESE 4 7 2 4 - - 0.0
27/04:30pm 11.7 9.6 4.0 59 3.5 ESE 4 6 2 3 - - 0.0
27/04:00pm 12.3 9.8 3.5 55 4.0 SE 6 9 3 5 - - 0.0
27/03:30pm 13.1 10.6 3.7 53 4.3 SE 6 11 3 6 - - 0.0
27/03:00pm 15.4 13.4 4.5 48 5.2 WSW 4 7 2 4 - - 0.0
27/02:30pm 15.1 12.5 3.0 44 5.6 W 6 11 3 6 - - 0.0
27/02:00pm 15.4 13.2 3.2 44 5.6 NW 4 9 2 5 - - 0.0
27/01:30pm 14.1 11.2 2.4 45 5.3 NW 7 15 4 8 - - 0.0
27/01:00pm 13.2 10.2 1.8 46 5.0 NW 7 15 4 8 - - 0.0
27/12:30pm 13.4 10.3 1.1 43 5.3 WNW 7 11 4 6 - - 0.0
27/12:00pm 12.4 8.9 1.1 46 4.9 NW 9 19 5 10 - - 0.0
27/11:30am 12.5 9.6 1.5 47 4.8 NW 6 9 3 5 - - 0.0
27/11:00am 11.2 7.8 1.7 52 4.1 NNW 9 20 5 11 - - 0.0
27/10:30am 11.2 8.4 2.0 53 4.0 WNW 6 13 3 7 - - 0.0
27/10:00am 9.6 6.8 2.9 63 2.9 NW 7 11 4 6 - - 0.0
27/09:30am 7.8 4.9 2.5 69 2.3 NW 7 13 4 7 - - 0.0
27/09:00am 6.5 2.7 1.8 72 1.9 NW 11 17 6 9 - - 0.0
27/08:30am 5.9 1.6 1.2 72 1.9 NW 13 19 7 10 - - 0.0
27/08:00am 5.1 1.2 1.2 76 1.6 NW 11 15 6 8 - - 0.0
27/07:30am 4.7 0.4 1.2 78 1.4 NW 13 24 7 13 - - 0.0
27/07:00am 4.6 0.0 1.3 79 1.3 NNW 15 20 8 11 - - 0.0
27/06:30am 5.2 0.9 1.3 76 1.6 NW 13 19 7 10 - - 0.0
27/06:00am 5.2 0.6 1.5 77 1.5 NNW 15 22 8 12 - - 0.0
27/05:30am 5.3 1.1 1.8 78 1.4 NW 13 19 7 10 - - 0.0
27/05:00am 5.3 1.2 2.1 80 1.3 NW 13 22 7 12 - - 0.0
27/04:30am 5.3 0.8 2.3 81 1.2 NNW 15 22 8 12 - - 0.0
27/04:00am 5.3 0.9 2.5 82 1.2 NNW 15 20 8 11 - - 0.0
27/03:30am 5.8 1.8 2.8 81 1.3 NNW 13 20 7 11 - - 0.0
27/03:00am 6.1 2.1 2.9 80 1.4 NNW 13 20 7 11 - - 0.0
27/02:30am 5.9 1.9 2.7 80 1.3 NNW 13 22 7 12 - - 0.0
27/02:00am 5.8 1.8 2.6 80 1.3 NNW 13 20 7 11 - - 0.0
27/01:30am 6.3 2.3 2.6 77 1.6 NW 13 20 7 11 - - 0.0
27/01:00am 6.4 2.7 2.5 76 1.6 WNW 11 17 6 9 - - 0.0
27/12:30am 6.7 3.4 2.4 74 1.8 WNW 9 17 5 9 - - 0.0
27/12:00am 6.6 3.7 2.7 76 1.7 WNW 7 17 4 9 - - 0.0
 
Date/Time
EST
Temp
°C
App
Temp
°C
Dew
Point
°C
Rel
Hum
%
Delta-T
°C
Wind Press
QNH
hPa
Press
MSL
hPa
Rain since
9am
mm
Dir  Spd
km/h
Gust
km/h
Spd
kts
Gust
kts
26/11:30pm 7.0 4.0 2.3 72 2.0 WNW 7 11 4 6 - - 0.0
26/11:00pm 7.4 4.4 2.1 69 2.2 WNW 7 17 4 9 - - 0.0
26/10:30pm 7.4 4.4 2.1 69 2.2 WNW 7 11 4 6 - - 0.0
26/10:00pm 7.3 4.6 2.6 72 2.0 WNW 6 15 3 8 - - 0.0
26/09:30pm 7.2 4.4 3.1 75 1.8 WNW 7 11 4 6 - - 0.0
26/09:00pm 7.4 4.2 3.1 74 1.9 W 9 11 5 6 - - 0.0
26/08:30pm 7.5 4.8 3.6 76 1.7 W 7 13 4 7 - - 0.0
26/08:00pm 7.8 4.7 3.5 74 1.9 W 9 19 5 10 - - 0.0
26/07:30pm 8.1 5.1 3.9 75 1.9 W 9 17 5 9 - - 0.0
26/07:00pm 8.3 5.6 3.9 74 1.9 WSW 7 15 4 8 - - 0.0
26/06:30pm 8.4 5.9 4.0 74 2.0 W 6 11 3 6 - - 0.0
26/06:00pm 8.2 5.7 3.9 74 1.9 W 6 9 3 5 - - 0.0
26/05:30pm 8.7 7.0 4.1 73 2.1 W 2 6 1 3 - - 0.0
26/05:00pm 9.6 7.6 4.2 69 2.4 WSW 4 9 2 5 - - 0.0
26/04:30pm 10.4 8.3 3.9 64 2.9 WSW 4 9 2 5 - - 0.0
26/04:00pm 11.7 9.3 4.2 60 3.4 W 6 11 3 6 - - 0.0
26/03:30pm 10.9 8.4 3.5 60 3.3 W 6 9 3 5 - - 0.0
26/03:00pm 10.6 8.1 3.9 63 3.0 W 6 9 3 5 - - 0.0
26/02:30pm 10.9 8.4 3.9 62 3.2 WSW 6 11 3 6 - - 0.0
26/02:00pm 9.5 7.0 3.5 66 2.7 W 6 11 3 6 - - 0.0
26/01:30pm 9.4 6.6 3.4 66 2.7 W 7 15 4 8 - - 0.0
26/01:00pm 9.3 6.6 3.5 67 2.6 W 7 15 4 8 - - 0.0
26/12:30pm 9.4 6.9 3.6 67 2.6 W 6 9 3 5 - - 0.0
26/12:00pm 9.3 6.5 3.3 66 2.6 W 7 17 4 9 - - 0.0
26/11:30am 9.8 6.6 3.1 63 2.9 W 9 20 5 11 - - 0.0
26/11:00am 9.0 6.2 3.2 67 2.5 W 7 15 4 8 - - 0.0
26/10:30am 9.0 6.2 3.2 67 2.5 W 7 19 4 10 - - 0.0
26/10:00am 8.8 5.7 3.4 69 2.4 W 9 22 5 12 - - 0.0
26/09:30am 7.9 4.9 3.9 76 1.8 W 9 15 5 8 - - 0.0
26/09:00am 7.3 3.9 4.1 80 1.4 W 11 22 6 12 - - 2.0
26/08:30am 6.2 3.3 4.4 88 0.8 W 9 15 5 8 - - 2.0
26/08:00am 5.6 2.6 4.2 91 0.6 W 9 19 5 10 - - 2.0
26/07:30am 5.4 2.5 4.5 94 0.4 W 9 19 5 10 - - 2.0
26/07:00am 5.3 2.4 4.7 96 0.3 W 9 13 5 7 - - 2.0
26/06:30am 5.2 2.3 4.6 96 0.3 W 9 15 5 8 - - 2.0
26/06:00am 5.3 2.4 4.6 95 0.3 W 9 13 5 7 - - 1.8
26/05:30am 5.5 2.5 4.3 92 0.5 W 9 13 5 7 - - 1.8
26/05:00am 5.6 2.7 4.4 92 0.5 W 9 15 5 8 - - 1.8
26/04:30am 5.6 2.7 4.6 93 0.4 W 9 20 5 11 - - 1.8
26/04:00am 5.6 2.7 4.6 93 0.4 W 9 17 5 9 - - 1.8
26/03:30am 5.5 2.6 4.6 94 0.4 W 9 15 5 8 - - 1.8
26/03:00am 5.5 2.6 4.5 93 0.4 W 9 13 5 7 - - 1.6
26/02:30am 5.6 2.2 4.1 90 0.7 W 11 15 6 8 - - 1.6
26/02:00am 5.7 2.3 4.2 90 0.7 W 11 17 6 9 - - 1.6
26/01:30am 5.7 2.7 4.0 89 0.7 W 9 15 5 8 - - 1.6
26/01:00am 5.5 2.4 3.8 89 0.7 W 9 15 5 8 - - 1.6
26/12:30am 5.6 2.2 3.9 89 0.7 W 11 19 6 10 - - 1.6
26/12:00am 5.6 2.6 3.9 89 0.7 W 9 15 5 8 - - 1.6
 
Date/Time
EST
Temp
°C
App
Temp
°C
Dew
Point
°C
Rel
Hum
%
Delta-T
°C
Wind Press
QNH
hPa
Press
MSL
hPa
Rain since
9am
mm
Dir  Spd
km/h
Gust
km/h
Spd
kts
Gust
kts
25/11:30pm 5.2 1.7 3.7 90 0.6 W 11 17 6 9 - - 1.6
25/11:00pm 5.4 1.9 3.7 89 0.7 W 11 20 6 11 - - 1.6
25/10:30pm 5.2 1.7 3.7 90 0.6 W 11 17 6 9 - - 1.6
25/10:00pm 5.1 1.7 3.8 91 0.6 W 11 17 6 9 - - 1.6
25/09:30pm 5.5 2.5 4.0 90 0.6 W 9 15 5 8 - - 1.6
25/09:00pm 5.7 2.7 4.2 90 0.7 W 9 17 5 9 - - 1.6
25/08:30pm 6.1 3.2 4.4 89 0.7 W 9 20 5 11 - - 1.6
25/08:00pm 6.0 3.0 4.2 88 0.8 WSW 9 17 5 9 - - 1.6
25/07:30pm 5.9 2.9 3.9 87 0.9 W 9 15 5 8 - - 1.6
25/07:00pm 6.0 2.9 3.5 84 1.1 WSW 9 15 5 8 - - 1.6
25/06:30pm 6.2 3.4 3.2 81 1.3 WSW 7 19 4 10 - - 1.6
25/06:00pm 6.4 3.6 3.2 80 1.4 WSW 7 11 4 6 - - 1.6
25/05:30pm 7.0 4.2 3.4 78 1.6 WSW 7 17 4 9 - - 1.6
25/05:00pm 7.3 4.6 3.7 78 1.6 WSW 7 15 4 8 - - 1.6
25/04:30pm 8.2 4.5 2.2 66 2.5 WSW 11 26 6 14 - - 1.6
25/04:00pm 9.0 5.4 3.2 67 2.5 W 11 24 6 13 - - 1.6
25/03:30pm 9.0 6.2 5.0 76 1.8 WSW 9 22 5 12 - - 1.6
25/03:00pm 7.2 4.4 3.4 77 1.6 W 7 17 4 9 - - 1.6
25/02:30pm 6.7 4.2 4.5 86 1.0 WSW 7 15 4 8 - - 1.6
25/02:00pm 6.3 3.9 5.1 92 0.5 WSW 7 15 4 8 - - 1.6
25/01:30pm 6.1 2.6 3.6 84 1.1 W 11 30 6 16 - - 1.4
25/01:00pm 8.4 5.4 4.0 74 2.0 W 9 24 5 13 - - 0.0
25/12:30pm 7.5 4.6 4.5 81 1.3 WSW 9 20 5 11 - - 0.0
25/12:00pm 8.0 5.1 4.9 81 1.4 WSW 9 20 5 11 - - 0.0
25/11:30am 9.1 6.2 4.5 73 2.1 W 9 17 5 9 - - 0.0
25/11:00am 8.2 4.8 4.2 76 1.8 W 11 24 6 13 - - 0.0
25/10:30am 7.7 4.8 4.8 82 1.3 W 9 19 5 10 - - 0.0
25/10:00am 7.3 4.7 4.4 82 1.3 W 7 13 4 7 - - 0.0
25/09:30am 6.5 3.4 3.8 83 1.2 W 9 28 5 15 - - 0.0
25/09:00am 5.7 2.6 3.5 86 0.9 W 9 19 5 10 - - 2.4
25/08:30am 4.7 1.5 2.9 88 0.8 W 9 13 5 7 - - 2.4
25/08:00am 4.7 1.5 3.2 90 0.6 W 9 15 5 8 - - 2.4
25/07:30am 4.3 0.7 3.1 92 0.5 W 11 17 6 9 - - 2.4
25/07:00am 4.0 0.4 3.1 94 0.4 W 11 15 6 8 - - 2.4
25/06:30am 3.9 0.3 3.2 95 0.3 W 11 15 6 8 - - 2.4
25/06:00am 4.0 0.5 3.3 95 0.3 W 11 15 6 8 - - 2.2
25/05:30am 4.1 0.6 3.5 96 0.3 W 11 13 6 7 - - 2.2
25/05:00am 4.1 0.3 3.7 97 0.2 W 13 15 7 8 - - 2.2
25/04:30am 4.2 0.8 3.9 98 0.1 W 11 15 6 8 - - 2.2
25/04:00am 4.2 0.8 3.9 98 0.1 W 11 17 6 9 - - 2.2
25/03:30am 4.5 1.1 4.2 98 0.1 W 11 17 6 9 - - 2.2
25/03:00am 4.6 1.6 4.3 98 0.1 W 9 17 5 9 - - 2.2
25/02:30am 4.7 1.8 4.6 99 0.0 W 9 15 5 8 - - 2.2
25/02:00am 4.7 1.8 4.6 99 0.0 W 9 13 5 7 - - 2.2
25/01:30am 4.9 2.0 4.6 98 0.1 W 9 11 5 6 - - 2.2
25/01:00am 5.1 2.2 4.8 98 0.1 W 9 11 5 6 - - 2.2
25/12:30am 5.0 2.5 4.7 98 0.1 W 7 11 4 6 - - 2.2
25/12:00am 5.3 3.4 4.9 97 0.2 WNW 4 9 2 5 - - 2.2
 
Date/Time
EST
Temp
°C
App
Temp
°C
Dew
Point
°C
Rel
Hum
%
Delta-T
°C
Wind Press
QNH
hPa
Press
MSL
hPa
Rain since
9am
mm
Dir  Spd
km/h
Gust
km/h
Spd
kts
Gust
kts
24/11:30pm 5.5 3.6 4.8 95 0.3 WNW 4 6 2 3 - - 2.0
24/11:00pm 5.5 3.6 4.9 96 0.3 WNW 4 7 2 4 - - 2.0
24/10:30pm 6.0 4.1 4.8 92 0.5 W 4 9 2 5 - - 0.4
24/10:00pm 6.0 4.0 4.5 90 0.7 WNW 4 6 2 3 - - 0.0
24/09:30pm 6.1 4.5 4.3 88 0.8 WNW 2 4 1 2 - - 0.0
24/09:00pm 6.4 4.8 4.6 88 0.8 W 2 4 1 2 - - 0.0
24/08:30pm 6.6 4.7 4.9 89 0.8 S 4 6 2 3 - - 0.0

Other Formats:

Comma delimited format used in spreadsheet applications
http://www.bom.gov.au/fwo/IDV60801/IDV60801.94930.axf

JavaScript Object Notation format (JSON) in row-major order
http://www.bom.gov.au/fwo/IDV60801/IDV60801.94930.json